Terminal Aerodrome Forecast
Issued by NWS

Home | Current Version | Previous Version | Text Only | Print | Product List | Glossary On
Versions: 1 2 3 4 5 6 7 8 9 10 11 12 13 14
000
FTPQ31 PGUM 252333
TAFTRO
TAF
PTRO 252333Z 2600/2624 05009KT P6SM VCSH SCT016 SCT100
     FM260800 05008KT P6SM FEW018 SCT100=

USA.gov is the U.S. government's official web portal to all federal, state and local government web resources and services.